Time;durP1;ratioP1;P1;durP2;ratioP2;P2;SDS_P1;SDS_P2;PMS_P1;PMS_P2;Temp;Humidity;BMP_temperature;BMP_pressure;BME280_temperature;BME280_humidity;BME280_pressure;Samples;Min_cycle;Max_cycle;Signal;HPM_P1;HPM_P2
2022/07/23 00:01:49;;;;;;;4.00;1.93;;;17.10;99.90;;;;;;5072936;28;20477;-73
2022/07/23 00:04:37;;;;;;;1.87;1.67;;;17.10;99.90;;;;;;5069903;28;20534;-73
2022/07/23 00:07:27;;;;;;;1.83;1.50;;;17.10;99.90;;;;;;5070924;28;20451;-74
2022/07/23 00:10:15;;;;;;;2.97;2.00;;;17.00;99.90;;;;;;5061434;28;20509;-73
2022/07/23 00:13:04;;;;;;;2.93;1.77;;;17.00;99.90;;;;;;5072288;28;20474;-73
2022/07/23 00:15:55;;;;;;;2.43;1.50;;;17.00;99.90;;;;;;5070058;28;20579;-74
2022/07/23 00:18:43;;;;;;;2.63;1.70;;;17.00;99.90;;;;;;5070629;28;20473;-73
2022/07/23 00:21:32;;;;;;;2.37;1.60;;;17.00;99.90;;;;;;5064580;28;20547;-73
2022/07/23 00:24:20;;;;;;;3.47;2.50;;;17.00;99.90;;;;;;5058839;28;20492;-74
2022/07/23 00:27:09;;;;;;;2.53;1.80;;;17.00;99.90;;;;;;5070171;28;20494;-74
2022/07/23 00:29:57;;;;;;;2.40;1.70;;;17.10;99.90;;;;;;5070099;28;20588;-73
2022/07/23 00:32:49;;;;;;;3.37;1.63;;;17.00;99.90;;;;;;5072035;28;21051;-73
2022/07/23 00:35:44;;;;;;;2.33;2.10;;;17.00;99.90;;;;;;5071163;28;20537;-73
2022/07/23 00:38:32;;;;;;;2.10;1.70;;;17.00;99.90;;;;;;5071118;28;20539;-73
2022/07/23 00:41:20;;;;;;;1.90;1.80;;;16.90;99.90;;;;;;5070827;28;20473;-73
2022/07/23 00:44:19;;;;;;;2.30;1.63;;;16.90;99.90;;;;;;5057923;28;20504;-74
2022/07/23 00:47:08;;;;;;;1.90;1.80;;;16.90;99.90;;;;;;5063846;28;20454;-74
2022/07/23 00:49:57;;;;;;;1.70;1.60;;;16.90;99.90;;;;;;5070751;28;20623;-73
2022/07/23 00:52:46;;;;;;;1.53;1.40;;;16.90;99.90;;;;;;5072507;28;21119;-73
2022/07/23 00:55:34;;;;;;;2.30;1.40;;;16.80;99.90;;;;;;5067809;28;20461;-73
2022/07/23 00:58:23;;;;;;;2.60;1.53;;;16.90;99.90;;;;;;5065370;28;20533;-73
2022/07/23 01:01:12;;;;;;;1.90;1.47;;;16.90;99.90;;;;;;5061202;28;20453;-74
2022/07/23 01:04:01;;;;;;;1.73;1.50;;;16.80;99.90;;;;;;5068992;28;20454;-73
2022/07/23 01:06:51;;;;;;;1.47;1.37;;;16.80;99.90;;;;;;5069313;28;20446;-73
2022/07/23 01:09:39;;;;;;;2.27;1.57;;;16.80;99.90;;;;;;5074504;28;20605;-73
2022/07/23 01:12:27;;;;;;;1.60;1.50;;;16.70;99.90;;;;;;5057888;28;20549;-74
2022/07/23 01:15:16;;;;;;;1.47;1.37;;;16.70;99.90;;;;;;5067473;28;20539;-73
2022/07/23 01:18:08;;;;;;;2.30;1.50;;;16.70;99.90;;;;;;5063009;28;20459;-73
2022/07/23 01:20:57;;;;;;;3.07;1.67;;;16.80;99.90;;;;;;5070016;28;20516;-73
2022/07/23 01:23:47;;;;;;;1.77;1.53;;;16.70;99.90;;;;;;5077206;22;20647;-75
2022/07/23 01:26:36;;;;;;;2.80;1.93;;;16.70;99.90;;;;;;5072694;28;21009;-73
2022/07/23 01:29:24;;;;;;;2.23;1.73;;;16.70;99.90;;;;;;5084903;28;20919;-74
2022/07/23 01:32:12;;;;;;;2.03;1.50;;;16.60;99.90;;;;;;5080120;28;20464;-74
2022/07/23 01:35:01;;;;;;;1.90;1.60;;;16.70;99.90;;;;;;5106670;28;20444;-74
2022/07/23 01:37:52;;;;;;;1.87;1.63;;;16.60;99.90;;;;;;5100536;28;20509;-74
2022/07/23 01:40:42;;;;;;;1.43;1.27;;;16.60;99.90;;;;;;5109814;28;20843;-74
2022/07/23 01:43:32;;;;;;;2.53;1.70;;;16.60;99.90;;;;;;5085483;28;20458;-74
2022/07/23 01:46:21;;;;;;;2.87;1.60;;;16.60;99.90;;;;;;5094751;28;20561;-74
2022/07/23 01:49:10;;;;;;;1.70;1.60;;;16.60;99.90;;;;;;5092613;28;20436;-73
2022/07/23 01:52:10;;;;;;;1.73;1.63;;;16.60;99.90;;;;;;5090519;28;20467;-73
2022/07/23 01:54:59;;;;;;;2.00;1.50;;;16.60;99.90;;;;;;5080962;28;20548;-73
2022/07/23 01:57:48;;;;;;;1.70;1.60;;;16.60;99.90;;;;;;5098488;28;20511;-73
2022/07/23 02:00:36;;;;;;;1.70;1.60;;;16.50;99.90;;;;;;5083531;28;20816;-73
2022/07/23 02:03:26;;;;;;;1.90;1.70;;;16.50;99.90;;;;;;5089174;28;20573;-74
2022/07/23 02:06:14;;;;;;;2.40;1.60;;;16.50;99.90;;;;;;5104299;28;20617;-74
2022/07/23 02:09:03;;;;;;;2.03;1.70;;;16.50;99.90;;;;;;5105106;28;20540;-74
2022/07/23 02:11:51;;;;;;;1.53;1.43;;;16.50;99.90;;;;;;5077931;28;20473;-74
2022/07/23 02:14:44;;;;;;;1.43;1.33;;;16.40;99.90;;;;;;5093385;28;20630;-74
2022/07/23 02:17:33;;;;;;;1.77;1.40;;;16.50;99.90;;;;;;5085355;28;20536;-74
2022/07/23 02:20:23;;;;;;;1.63;1.47;;;16.50;99.90;;;;;;5092091;28;20518;-74
2022/07/23 02:23:11;;;;;;;2.77;1.83;;;16.50;99.90;;;;;;5088756;28;20480;-74
2022/07/23 02:26:00;;;;;;;2.33;1.73;;;16.40;99.90;;;;;;5104945;28;20471;-74
2022/07/23 02:28:48;;;;;;;1.70;1.60;;;16.40;99.90;;;;;;5108629;28;20522;-73
2022/07/23 02:31:38;;;;;;;1.50;1.40;;;16.40;99.90;;;;;;5076381;28;20605;-74
2022/07/23 02:34:27;;;;;;;3.63;2.00;;;16.40;99.90;;;;;;5090318;28;20464;-73
2022/07/23 02:37:15;;;;;;;2.37;1.60;;;16.40;99.90;;;;;;5091221;28;20449;-73
2022/07/23 02:40:04;;;;;;;1.60;1.50;;;16.30;99.90;;;;;;5109433;28;20484;-74
2022/07/23 02:42:53;;;;;;;2.57;1.60;;;16.30;99.90;;;;;;5085717;28;20465;-74
2022/07/23 02:45:44;;;;;;;2.27;1.77;;;16.30;99.90;;;;;;5087058;28;20978;-74
2022/07/23 02:48:34;;;;;;;2.10;2.00;;;16.20;99.90;;;;;;5101284;28;20455;-73
2022/07/23 02:51:22;;;;;;;2.73;1.53;;;16.20;99.90;;;;;;5084995;28;20467;-74
2022/07/23 02:54:10;;;;;;;2.53;1.47;;;16.20;99.90;;;;;;5096944;28;20919;-74
2022/07/23 02:56:59;;;;;;;2.10;1.77;;;16.10;99.90;;;;;;5111546;28;20462;-75
2022/07/23 02:59:47;;;;;;;2.30;1.90;;;16.10;99.90;;;;;;5099143;28;20482;-73
2022/07/23 03:02:36;;;;;;;2.50;1.90;;;16.10;99.90;;;;;;5096431;28;20486;-73
2022/07/23 03:05:26;;;;;;;3.00;1.77;;;16.00;99.90;;;;;;5080754;28;20452;-74
2022/07/23 03:08:14;;;;;;;1.80;1.70;;;16.00;99.90;;;;;;5084952;28;20444;-74
2022/07/23 03:11:02;;;;;;;1.70;1.60;;;16.00;99.90;;;;;;5091600;28;20558;-73
2022/07/23 03:13:51;;;;;;;2.30;1.80;;;16.00;99.90;;;;;;5093931;28;20491;-73
2022/07/23 03:16:39;;;;;;;1.83;1.73;;;16.00;99.90;;;;;;5107535;28;20477;-73
2022/07/23 03:19:27;;;;;;;3.10;1.83;;;16.00;99.90;;;;;;5088850;28;20548;-74
2022/07/23 03:22:17;;;;;;;3.40;2.03;;;16.00;99.90;;;;;;5097416;28;20503;-73
2022/07/23 03:25:07;;;;;;;2.37;2.17;;;16.00;99.90;;;;;;5088652;28;20485;-74
2022/07/23 03:27:55;;;;;;;2.33;1.70;;;16.10;99.90;;;;;;5084613;28;20457;-74
2022/07/23 03:30:46;;;;;;;4.17;2.07;;;16.10;99.90;;;;;;5096615;28;20442;-74
2022/07/23 03:33:34;;;;;;;2.10;1.90;;;16.10;99.90;;;;;;5097806;28;20684;-74
2022/07/23 03:36:22;;;;;;;2.17;1.90;;;16.10;99.90;;;;;;5088619;28;20461;-74
2022/07/23 03:39:14;;;;;;;2.10;1.90;;;16.10;99.90;;;;;;5092535;28;20856;-74
2022/07/23 03:42:02;;;;;;;2.20;2.00;;;16.10;99.90;;;;;;5082837;28;20449;-73
2022/07/23 03:44:50;;;;;;;1.73;1.63;;;16.10;99.90;;;;;;5096608;28;20472;-73
2022/07/23 03:47:39;;;;;;;2.10;1.90;;;16.10;99.90;;;;;;5092281;28;21034;-73
2022/07/23 03:50:28;;;;;;;2.40;1.80;;;16.10;99.90;;;;;;5112283;28;20551;-74
2022/07/23 03:53:16;;;;;;;1.90;1.80;;;16.10;99.90;;;;;;5095965;28;20987;-73
2022/07/23 03:56:07;;;;;;;2.53;1.90;;;16.10;99.90;;;;;;5089572;28;20472;-73
2022/07/23 03:58:55;;;;;;;2.70;2.10;;;16.10;99.90;;;;;;5104172;28;20519;-74
2022/07/23 04:01:43;;;;;;;2.13;1.80;;;16.00;99.90;;;;;;5081772;28;20861;-74
2022/07/23 04:04:32;;;;;;;2.40;1.67;;;16.00;99.90;;;;;;5100384;28;20535;-74
2022/07/23 04:07:21;;;;;;;2.10;1.90;;;16.00;99.90;;;;;;5091977;28;20445;-73
2022/07/23 04:10:10;;;;;;;2.00;1.80;;;16.00;99.90;;;;;;5092076;28;20503;-74
2022/07/23 04:13:00;;;;;;;2.67;1.87;;;16.00;99.90;;;;;;5107432;28;20566;-73
2022/07/23 04:15:48;;;;;;;2.90;1.90;;;16.00;99.90;;;;;;5080513;28;20936;-74
2022/07/23 04:18:37;;;;;;;2.20;1.93;;;16.00;99.90;;;;;;5092040;28;20483;-73
2022/07/23 04:21:25;;;;;;;2.63;1.80;;;16.10;99.90;;;;;;5083274;28;20666;-73
2022/07/23 04:24:13;;;;;;;3.70;2.10;;;16.10;99.90;;;;;;5103772;28;21049;-74
2022/07/23 04:27:03;;;;;;;2.27;2.03;;;16.10;99.90;;;;;;5096144;28;20532;-74
2022/07/23 04:29:54;;;;;;;2.60;2.17;;;16.20;99.90;;;;;;5107446;28;20432;-74
2022/07/23 04:32:42;;;;;;;3.00;2.50;;;16.20;99.90;;;;;;5103310;28;20543;-74
2022/07/23 04:35:30;;;;;;;3.83;2.10;;;16.20;99.90;;;;;;5109234;28;20478;-74
2022/07/23 04:38:21;;;;;;;2.40;2.20;;;16.20;99.90;;;;;;5093624;28;20475;-73
2022/07/23 04:41:09;;;;;;;3.40;2.13;;;16.20;99.90;;;;;;5110383;28;20448;-73
2022/07/23 04:43:57;;;;;;;4.00;2.17;;;16.20;99.90;;;;;;5088682;28;20469;-73
2022/07/23 04:46:47;;;;;;;2.87;2.17;;;16.20;99.90;;;;;;5089899;28;20487;-74
2022/07/23 04:49:37;;;;;;;3.33;2.27;;;16.20;99.90;;;;;;5082864;28;20438;-73
2022/07/23 04:52:26;;;;;;;3.87;2.23;;;16.20;99.90;;;;;;5093588;28;20487;-73
2022/07/23 04:55:14;;;;;;;4.10;2.60;;;16.20;99.90;;;;;;5083112;28;20450;-73
2022/07/23 04:58:03;;;;;;;2.17;1.97;;;16.20;99.90;;;;;;5082477;28;20579;-74
2022/07/23 05:00:51;;;;;;;13.53;2.67;;;16.20;99.90;;;;;;5094448;28;20541;-73
2022/07/23 05:03:41;;;;;;;2.43;2.23;;;16.10;99.90;;;;;;5105066;28;20499;-73
2022/07/23 05:06:29;;;;;;;2.60;2.30;;;16.10;99.90;;;;;;5080924;28;21019;-74
2022/07/23 05:09:17;;;;;;;2.83;2.50;;;16.10;99.90;;;;;;5076561;28;20461;-73
2022/07/23 05:12:06;;;;;;;2.33;2.13;;;16.00;99.90;;;;;;5086094;28;20571;-74
2022/07/23 05:14:54;;;;;;;3.33;2.33;;;16.00;99.90;;;;;;5109754;28;20446;-70
2022/07/23 05:17:45;;;;;;;1.83;1.50;;;16.10;99.90;;;;;;5067503;28;20529;-71
2022/07/23 05:20:35;;;;;;;2.47;2.00;;;16.10;99.90;;;;;;5090133;28;20453;-70
2022/07/23 05:23:24;;;;;;;4.00;1.60;;;16.10;99.90;;;;;;5102734;28;20560;-70
2022/07/23 05:26:12;;;;;;;1.77;1.67;;;16.20;99.90;;;;;;5100683;28;20959;-70
2022/07/23 05:29:00;;;;;;;1.90;1.80;;;16.20;99.90;;;;;;5085044;28;20541;-70
2022/07/23 05:31:49;;;;;;;1.37;1.27;;;16.20;99.90;;;;;;5102808;28;20514;-70
2022/07/23 05:34:38;;;;;;;2.10;1.40;;;16.20;99.90;;;;;;5065303;28;20460;-74
2022/07/23 05:37:27;;;;;;;1.67;1.53;;;16.20;99.90;;;;;;5087076;28;20511;-74
2022/07/23 05:40:16;;;;;;;2.07;1.77;;;16.20;99.90;;;;;;5099908;28;20542;-73
2022/07/23 05:43:04;;;;;;;2.20;1.57;;;16.20;99.90;;;;;;5086012;28;20551;-74
2022/07/23 05:45:53;;;;;;;1.70;1.60;;;16.30;99.90;;;;;;5095331;28;20453;-74
2022/07/23 05:48:43;;;;;;;1.50;1.40;;;16.30;99.90;;;;;;5089063;28;20448;-73
2022/07/23 05:51:32;;;;;;;1.80;1.70;;;16.30;99.90;;;;;;5079405;28;20559;-74
2022/07/23 05:54:21;;;;;;;1.80;1.63;;;16.40;99.90;;;;;;5098035;28;20622;-73
2022/07/23 05:57:09;;;;;;;2.30;1.70;;;16.40;99.90;;;;;;5107010;28;20531;-74
2022/07/23 05:59:58;;;;;;;1.77;1.60;;;16.40;99.90;;;;;;5084928;28;20445;-74
2022/07/23 06:02:46;;;;;;;2.03;1.50;;;16.40;99.90;;;;;;5085003;28;20483;-74
2022/07/23 06:05:42;;;;;;;2.50;1.40;;;16.50;99.90;;;;;;5065893;28;20567;-74
2022/07/23 06:08:31;;;;;;;1.80;1.60;;;16.50;99.90;;;;;;5073758;28;20525;-74
2022/07/23 06:11:21;;;;;;;1.37;1.33;;;16.50;99.90;;;;;;5076736;28;20871;-74
2022/07/23 06:14:09;;;;;;;4.03;1.37;;;16.50;99.90;;;;;;5092434;28;20485;-74
2022/07/23 06:16:59;;;;;;;1.50;1.40;;;16.50;99.90;;;;;;5091883;28;20538;-74
2022/07/23 06:19:47;;;;;;;1.93;1.47;;;16.60;99.90;;;;;;5091808;28;20502;-74
2022/07/23 06:22:36;;;;;;;1.80;1.70;;;16.70;99.90;;;;;;5092510;28;20664;-74
2022/07/23 06:25:25;;;;;;;2.70;1.60;;;16.70;99.90;;;;;;5097989;28;20829;-74
2022/07/23 06:28:15;;;;;;;2.97;1.40;;;16.70;99.90;;;;;;5104696;28;20489;-74
2022/07/23 06:31:03;;;;;;;1.80;1.70;;;16.70;99.90;;;;;;5095769;28;20452;-74
2022/07/23 06:33:52;;;;;;;1.43;1.33;;;16.70;99.90;;;;;;5077424;28;20473;-73
2022/07/23 06:36:40;;;;;;;1.60;1.50;;;16.80;99.90;;;;;;5097053;28;20529;-74
2022/07/23 06:39:30;;;;;;;1.93;1.30;;;16.80;99.90;;;;;;5097974;28;20471;-74
2022/07/23 06:42:18;;;;;;;1.47;1.30;;;16.80;99.90;;;;;;5101206;28;20553;-74
2022/07/23 06:45:09;;;;;;;1.70;1.60;;;16.90;99.90;;;;;;5103880;28;20472;-74
2022/07/23 06:47:58;;;;;;;4.03;1.50;;;16.90;99.90;;;;;;5090746;28;20549;-73
2022/07/23 06:50:46;;;;;;;1.10;1.10;;;17.00;99.90;;;;;;5102880;28;21010;-74
2022/07/23 06:53:34;;;;;;;1.40;1.30;;;17.00;99.90;;;;;;5091353;28;21387;-74
2022/07/23 06:56:23;;;;;;;1.17;1.17;;;17.00;99.90;;;;;;5091620;28;20444;-74
2022/07/23 06:59:11;;;;;;;1.60;1.50;;;17.00;99.90;;;;;;5094159;28;20955;-74
2022/07/23 07:02:01;;;;;;;1.93;1.20;;;17.00;99.90;;;;;;5094108;28;20451;-74
2022/07/23 07:04:50;;;;;;;2.73;1.30;;;17.00;99.90;;;;;;5103546;28;20522;-74
2022/07/23 07:07:38;;;;;;;3.00;1.70;;;17.00;99.90;;;;;;5088774;28;20535;-74
2022/07/23 07:10:26;;;;;;;1.70;1.60;;;17.00;99.90;;;;;;5089095;28;20466;-74
2022/07/23 07:13:15;;;;;;;1.70;1.60;;;17.00;99.90;;;;;;5094036;28;20526;-74
2022/07/23 07:16:03;;;;;;;1.77;1.53;;;17.10;99.90;;;;;;5099776;28;20455;-74
2022/07/23 07:18:53;;;;;;;2.70;1.50;;;17.10;99.90;;;;;;5077279;28;20458;-74
2022/07/23 07:21:41;;;;;;;1.63;1.20;;;17.10;99.90;;;;;;5087199;28;21003;-75
2022/07/23 07:24:31;;;;;;;1.50;1.37;;;17.10;99.90;;;;;;5093094;22;20524;-72
2022/07/23 07:27:25;;;;;;;1.30;1.20;;;17.00;99.90;;;;;;5071735;28;20450;-73
2022/07/23 07:30:14;;;;;;;2.43;1.33;;;16.80;99.90;;;;;;5057956;28;20591;-72
2022/07/23 07:33:02;;;;;;;1.23;1.13;;;16.80;99.90;;;;;;5070306;28;20878;-72
2022/07/23 07:35:52;;;;;;;1.50;1.10;;;16.80;99.90;;;;;;5053370;28;20454;-72
2022/07/23 07:38:40;;;;;;;1.47;1.20;;;16.80;99.90;;;;;;5041262;28;20485;-72
2022/07/23 07:41:28;;;;;;;1.73;1.23;;;16.80;99.90;;;;;;5054679;28;20454;-73
2022/07/23 07:44:17;;;;;;;1.17;0.97;;;16.80;99.90;;;;;;5060702;28;20572;-72
2022/07/23 07:47:05;;;;;;;1.23;1.00;;;16.90;99.90;;;;;;5054014;28;20554;-72
2022/07/23 07:49:54;;;;;;;1.93;1.17;;;16.90;99.90;;;;;;5052718;28;20526;-72
2022/07/23 07:52:45;;;;;;;3.03;1.03;;;16.90;99.90;;;;;;5047248;28;20477;-72
2022/07/23 07:55:33;;;;;;;1.53;1.20;;;16.90;99.90;;;;;;5048553;28;20986;-72
2022/07/23 07:58:21;;;;;;;1.20;1.10;;;17.00;99.90;;;;;;5059156;28;20811;-72
2022/07/23 08:01:09;;;;;;;1.60;1.20;;;17.10;99.90;;;;;;5049171;28;20493;-72
2022/07/23 08:04:01;;;;;;;1.40;1.30;;;17.30;99.90;;;;;;5062502;28;20479;-72
2022/07/23 08:06:50;;;;;;;1.97;1.10;;;17.30;99.90;;;;;;5053738;28;20860;-72
2022/07/23 08:09:39;;;;;;;1.70;1.20;;;17.30;99.90;;;;;;5052568;28;20536;-72
2022/07/23 08:12:28;;;;;;;1.23;1.13;;;17.20;99.90;;;;;;5052529;28;20994;-72
2022/07/23 08:15:18;;;;;;;1.13;1.03;;;17.20;99.90;;;;;;5051408;28;20486;-71
2022/07/23 08:18:06;;;;;;;1.10;1.00;;;17.10;99.90;;;;;;5056023;28;20452;-72
2022/07/23 08:20:54;;;;;;;1.20;1.10;;;17.10;99.90;;;;;;5051634;28;20454;-71
2022/07/23 08:23:42;;;;;;;1.17;1.10;;;17.10;99.90;;;;;;5068762;28;20554;-72
2022/07/23 08:26:32;;;;;;;1.43;1.10;;;17.10;99.90;;;;;;5055944;28;20512;-72
2022/07/23 08:29:20;;;;;;;1.00;0.90;;;17.10;99.90;;;;;;5044703;28;20584;-72
2022/07/23 08:32:14;;;;;;;1.30;0.90;;;17.10;99.90;;;;;;5050633;28;20520;-72
2022/07/23 08:35:25;;;;;;;1.27;1.03;;;17.20;99.90;;;;;;5054814;28;20474;-72
2022/07/23 08:38:15;;;;;;;1.73;1.10;;;17.20;99.90;;;;;;5055990;28;20455;-71
2022/07/23 08:41:04;;;;;;;1.77;1.00;;;17.30;99.90;;;;;;5058416;28;20553;-71
2022/07/23 08:43:54;;;;;;;2.20;1.00;;;17.40;99.90;;;;;;5026506;28;20837;-71
2022/07/23 08:46:43;;;;;;;0.97;0.93;;;17.50;99.90;;;;;;5051995;28;20495;-72
2022/07/23 08:49:32;;;;;;;0.87;0.80;;;17.60;99.90;;;;;;5060195;28;20534;-72
2022/07/23 08:52:23;;;;;;;1.57;0.80;;;17.60;99.90;;;;;;5053332;28;20455;-72
2022/07/23 08:55:17;;;;;;;1.57;0.80;;;17.70;99.90;;;;;;5034358;28;20629;-72
2022/07/23 08:58:05;;;;;;;1.37;0.90;;;17.70;99.90;;;;;;5037595;28;20496;-72
2022/07/23 09:00:56;;;;;;;1.10;0.80;;;17.80;99.90;;;;;;5055439;28;20478;-72
2022/07/23 09:03:45;;;;;;;1.43;0.90;;;17.80;99.90;;;;;;5052291;28;20467;-72
2022/07/23 09:06:34;;;;;;;1.70;0.93;;;17.80;99.90;;;;;;5053916;28;20442;-72
2022/07/23 09:09:23;;;;;;;2.17;0.87;;;17.90;99.90;;;;;;5052439;28;20581;-71
2022/07/23 09:12:12;;;;;;;0.70;0.70;;;18.00;99.90;;;;;;5042672;28;20972;-72
2022/07/23 09:15:06;;;;;;;1.70;0.90;;;18.10;99.90;;;;;;5030235;28;21329;-72
2022/07/23 09:17:56;;;;;;;3.90;0.90;;;18.30;99.90;;;;;;5022455;28;20450;-72
2022/07/23 09:20:44;;;;;;;0.80;0.80;;;18.40;99.90;;;;;;5041365;28;20538;-72
2022/07/23 09:23:39;;;;;;;0.93;0.93;;;18.50;99.90;;;;;;5035126;28;21026;-72
2022/07/23 09:26:33;;;;;;;1.67;0.93;;;18.60;99.90;;;;;;5045287;28;20501;-71
2022/07/23 09:29:26;;;;;;;2.57;1.00;;;18.70;99.90;;;;;;5043834;28;21026;-71
2022/07/23 09:32:15;;;;;;;0.80;0.80;;;18.80;99.90;;;;;;5042057;28;20494;-71
2022/07/23 09:35:08;;;;;;;0.93;0.70;;;18.80;99.90;;;;;;5040714;28;20486;-72
2022/07/23 09:38:02;;;;;;;1.00;0.90;;;18.90;99.90;;;;;;5034990;28;20473;-72
2022/07/23 09:41:07;;;;;;;0.80;0.80;;;18.90;99.90;;;;;;5045421;28;20491;-71
2022/07/23 09:43:57;;;;;;;0.90;0.90;;;18.90;99.90;;;;;;5042965;28;20562;-71
2022/07/23 09:46:47;;;;;;;1.20;1.10;;;18.90;99.90;;;;;;5045050;28;20458;-71
2022/07/23 09:49:35;;;;;;;1.10;1.10;;;18.90;99.90;;;;;;5045096;28;20482;-72
2022/07/23 09:52:32;;;;;;;1.50;1.23;;;18.90;99.90;;;;;;5051224;28;20450;-70
2022/07/23 09:55:35;;;;;;;1.20;1.10;;;18.90;99.90;;;;;;5042137;28;20597;-71
2022/07/23 09:58:26;;;;;;;1.30;1.20;;;18.90;99.90;;;;;;5047653;28;20936;-70
2022/07/23 10:01:15;;;;;;;1.37;1.27;;;19.00;99.90;;;;;;5046049;28;20446;-73
2022/07/23 10:04:03;;;;;;;1.37;1.00;;;19.00;99.90;;;;;;5051694;28;20469;-71
2022/07/23 10:06:55;;;;;;;1.57;1.20;;;19.00;99.90;;;;;;5039508;28;21136;-71
2022/07/23 10:09:48;;;;;;;2.00;0.83;;;18.90;99.90;;;;;;5051172;28;20450;-72
2022/07/23 10:15:42;;;;;;;1.13;0.90;;;18.80;99.90;;;;;;5025413;28;21059;-71
2022/07/23 10:18:31;;;;;;;1.73;1.10;;;18.80;99.90;;;;;;5039864;28;20462;-72
2022/07/23 10:21:26;;;;;;;0.90;0.90;;;18.80;99.90;;;;;;5039060;28;20677;-72
2022/07/23 10:24:24;;;;;;;3.07;1.10;;;18.80;99.90;;;;;;5046931;28;20478;-73
2022/07/23 10:27:39;;;;;;;2.70;0.90;;;18.80;99.90;;;;;;5044268;28;20446;-72
2022/07/23 10:30:36;;;;;;;0.77;0.77;;;18.90;99.90;;;;;;5042198;28;20485;-72
2022/07/23 10:33:33;;;;;;;1.00;1.00;;;19.00;99.90;;;;;;5051650;28;20454;-72
2022/07/23 10:36:28;;;;;;;1.50;0.80;;;19.10;99.90;;;;;;5055679;28;20478;-72
2022/07/23 10:39:22;;;;;;;0.80;0.80;;;19.20;99.90;;;;;;5047024;28;20508;-73
2022/07/23 10:42:12;;;;;;;0.67;0.67;;;19.20;99.90;;;;;;5053986;28;20787;-73
2022/07/23 10:45:22;;;;;;;2.40;0.73;;;19.30;99.90;;;;;;5053624;28;20465;-73
2022/07/23 10:48:15;;;;;;;1.07;0.97;;;19.40;99.90;;;;;;5046877;28;20450;-72
2022/07/23 10:51:08;;;;;;;1.03;0.80;;;19.40;99.90;;;;;;5041009;28;20821;-72
2022/07/23 10:53:58;;;;;;;2.57;0.90;;;19.30;99.90;;;;;;5049678;28;20521;-73
2022/07/23 10:57:07;;;;;;;0.80;0.80;;;19.40;99.90;;;;;;5039117;28;20854;-73
2022/07/23 11:00:21;;;;;;;1.10;0.90;;;19.40;99.90;;;;;;5051817;28;20456;-72
2022/07/23 11:03:36;;;;;;;1.30;1.20;;;19.50;99.90;;;;;;5045272;28;20818;-72
2022/07/23 11:06:24;;;;;;;0.90;0.90;;;19.40;99.90;;;;;;5040826;28;20454;-72
2022/07/23 11:09:25;;;;;;;1.93;1.10;;;19.40;99.90;;;;;;5044119;28;21014;-70
2022/07/23 11:12:42;;;;;;;0.97;0.90;;;19.40;99.90;;;;;;5044440;28;20900;-71
2022/07/23 11:15:32;;;;;;;1.13;0.80;;;19.30;99.90;;;;;;5038915;28;20586;-71
2022/07/23 11:18:58;;;;;;;0.90;0.90;;;19.20;99.90;;;;;;5043012;28;21090;-71
2022/07/23 11:21:56;;;;;;;0.90;0.73;;;19.20;99.90;;;;;;5040835;28;20451;-71
2022/07/23 11:24:52;;;;;;;1.33;0.90;;;19.10;99.90;;;;;;5045335;28;20514;-71
2022/07/23 11:27:41;;;;;;;0.87;0.80;;;19.20;99.90;;;;;;5039581;28;20458;-71
2022/07/23 11:30:41;;;;;;;0.73;0.70;;;19.20;99.90;;;;;;5041644;28;20549;-71
2022/07/23 11:33:31;;;;;;;1.00;0.77;;;19.20;99.90;;;;;;5036770;28;20991;-70
2022/07/23 11:36:21;;;;;;;1.03;0.77;;;19.30;99.90;;;;;;5039721;28;20948;-70
2022/07/23 11:39:10;;;;;;;2.03;1.00;;;19.40;99.90;;;;;;5044972;28;20937;-71
2022/07/23 11:41:59;;;;;;;0.90;0.90;;;19.40;99.90;;;;;;5042100;28;20453;-71
2022/07/23 11:44:51;;;;;;;1.77;1.00;;;19.50;99.90;;;;;;5040189;28;20498;-71
2022/07/23 11:47:39;;;;;;;1.27;0.77;;;19.50;99.90;;;;;;5047674;28;20624;-70
2022/07/23 11:50:29;;;;;;;1.03;0.93;;;19.60;99.90;;;;;;5040635;28;20459;-71
2022/07/23 11:53:25;;;;;;;1.90;1.07;;;19.70;99.90;;;;;;5032855;28;20551;-70
2022/07/23 11:56:14;;;;;;;1.07;1.00;;;19.80;99.90;;;;;;5026258;28;20486;-70
2022/07/23 11:59:02;;;;;;;1.40;0.90;;;19.90;99.90;;;;;;5037737;28;20554;-71
2022/07/23 12:01:58;;;;;;;0.77;0.77;;;20.00;99.90;;;;;;5041977;28;20447;-70
2022/07/23 12:04:49;;;;;;;0.80;0.80;;;20.00;99.90;;;;;;5044592;28;20490;-70
2022/07/23 12:07:39;;;;;;;1.23;0.70;;;20.00;99.90;;;;;;5042906;28;20488;-70
2022/07/23 12:10:31;;;;;;;1.20;0.90;;;20.00;99.90;;;;;;5039558;28;20938;-71
2022/07/23 12:13:22;;;;;;;1.00;0.93;;;19.90;99.90;;;;;;5048430;28;20544;-71
2022/07/23 12:16:12;;;;;;;2.40;1.30;;;20.00;99.90;;;;;;5044806;28;20470;-71
2022/07/23 12:19:00;;;;;;;1.07;1.07;;;19.90;99.90;;;;;;5036603;28;20455;-71
2022/07/23 12:21:48;;;;;;;1.60;1.40;;;19.80;99.90;;;;;;5045465;28;20452;-71
2022/07/23 12:24:55;;;;;;;1.13;1.13;;;19.70;99.90;;;;;;5049957;28;20502;-70
2022/07/23 12:27:46;;;;;;;2.10;1.30;;;19.80;99.90;;;;;;5037356;28;20458;-71
2022/07/23 12:30:39;;;;;;;1.70;1.10;;;19.70;99.90;;;;;;5037346;28;20454;-70
2022/07/23 12:33:29;;;;;;;2.03;1.00;;;19.60;99.90;;;;;;5041384;28;22395;-72
2022/07/23 12:36:18;;;;;;;2.33;1.00;;;19.70;99.90;;;;;;5035958;28;20523;-71
2022/07/23 12:39:09;;;;;;;1.43;1.13;;;19.70;99.90;;;;;;5039588;28;20585;-70
2022/07/23 12:42:12;;;;;;;2.10;1.20;;;19.90;99.90;;;;;;5041571;28;20456;-72
2022/07/23 12:45:12;;;;;;;1.17;1.07;;;20.10;99.90;;;;;;5039518;28;20519;-73
2022/07/23 12:48:05;;;;;;;1.63;1.00;;;20.00;99.90;;;;;;5038532;28;20508;-72
2022/07/23 12:50:57;;;;;;;2.10;1.30;;;20.00;99.90;;;;;;5044373;28;20477;-72
2022/07/23 12:53:47;;;;;;;1.50;1.30;;;19.90;99.90;;;;;;5046602;28;20917;-74
2022/07/23 12:56:40;;;;;;;1.03;0.90;;;19.90;99.90;;;;;;5045754;28;20474;-72
2022/07/23 12:59:32;;;;;;;1.23;1.10;;;19.90;99.90;;;;;;5048318;28;20458;-72
2022/07/23 13:02:22;;;;;;;0.90;0.90;;;19.90;99.90;;;;;;5053203;28;20454;-72
2022/07/23 13:05:11;;;;;;;1.03;0.90;;;20.10;99.90;;;;;;5049193;28;20466;-73
2022/07/23 13:08:02;;;;;;;0.80;0.80;;;20.20;99.90;;;;;;5036764;28;20556;-73
2022/07/23 13:10:52;;;;;;;2.50;0.90;;;20.20;99.90;;;;;;5046268;28;20592;-72
2022/07/23 13:13:42;;;;;;;0.90;0.90;;;20.20;99.90;;;;;;5046171;28;20466;-71
2022/07/23 13:16:31;;;;;;;1.20;1.10;;;20.20;99.90;;;;;;5042284;28;20521;-71
2022/07/23 13:19:22;;;;;;;0.80;0.80;;;20.40;99.90;;;;;;5041335;28;20523;-71
2022/07/23 13:22:13;;;;;;;0.80;0.80;;;20.60;99.90;;;;;;5046782;28;20462;-72
2022/07/23 13:27:58;;;;;;;2.40;1.07;;;20.80;99.90;;;;;;5008109;28;20480;-73
2022/07/23 13:30:49;;;;;;;1.37;1.00;;;20.70;99.90;;;;;;5006892;28;20535;-73
2022/07/23 13:33:38;;;;;;;0.90;0.90;;;20.60;99.90;;;;;;5004921;28;20464;-73
2022/07/23 13:36:28;;;;;;;0.83;0.83;;;20.40;99.90;;;;;;5023986;28;20484;-73
2022/07/23 13:39:16;;;;;;;1.30;1.17;;;20.40;99.90;;;;;;5020819;28;20537;-73
2022/07/23 13:42:05;;;;;;;1.53;1.43;;;20.40;99.90;;;;;;5014715;28;20483;-73
2022/07/23 13:44:55;;;;;;;1.50;1.10;;;20.40;99.90;;;;;;5015533;28;20546;-73
2022/07/23 13:47:44;;;;;;;1.10;1.00;;;20.40;99.90;;;;;;5011149;28;20494;-73
2022/07/23 13:50:33;;;;;;;0.83;0.83;;;20.40;99.90;;;;;;5017275;28;21021;-73
2022/07/23 13:53:24;;;;;;;1.80;1.10;;;20.30;99.90;;;;;;5018244;28;20452;-73
2022/07/23 13:56:12;;;;;;;1.33;1.00;;;20.30;99.90;;;;;;5020359;28;20484;-73
2022/07/23 13:59:01;;;;;;;1.10;1.00;;;20.40;99.90;;;;;;5022212;28;20467;-73
2022/07/23 14:01:50;;;;;;;1.37;1.07;;;20.30;99.90;;;;;;5009188;28;20452;-73
2022/07/23 14:04:58;;;;;;;1.13;1.03;;;20.40;99.90;;;;;;5023416;28;20458;-73
2022/07/23 14:07:49;;;;;;;1.27;1.10;;;20.30;99.90;;;;;;5018104;28;20453;-73
2022/07/23 14:10:39;;;;;;;1.07;0.97;;;20.30;99.90;;;;;;5018789;28;20547;-73
2022/07/23 14:13:28;;;;;;;1.53;1.10;;;20.40;99.90;;;;;;5015415;28;20452;-73
2022/07/23 14:16:18;;;;;;;1.17;1.00;;;20.30;99.90;;;;;;5011046;28;20465;-73
2022/07/23 14:19:07;;;;;;;3.70;1.17;;;20.40;99.90;;;;;;5012258;28;20452;-73
2022/07/23 14:21:55;;;;;;;1.20;1.20;;;20.50;99.90;;;;;;5007001;28;20459;-73
2022/07/23 14:24:44;;;;;;;1.57;0.80;;;20.50;99.90;;;;;;5006110;28;20498;-74
2022/07/23 14:27:34;;;;;;;1.30;1.10;;;20.50;99.90;;;;;;5008872;28;20472;-74
2022/07/23 14:30:23;;;;;;;1.20;1.07;;;20.50;99.90;;;;;;5008494;28;21019;-72
2022/07/23 14:33:16;;;;;;;2.03;1.30;;;20.50;99.90;;;;;;5014542;28;20546;-72
2022/07/23 14:36:05;;;;;;;1.80;0.80;;;20.90;99.90;;;;;;5018076;28;20526;-71
2022/07/23 14:38:55;;;;;;;1.73;1.13;;;21.50;99.90;;;;;;5021154;28;20849;-71
2022/07/23 14:41:44;;;;;;;1.97;0.90;;;21.80;99.90;;;;;;5005598;28;20546;-71
2022/07/23 14:44:38;;;;;;;1.40;1.20;;;22.00;99.90;;;;;;5016918;28;20443;-71
2022/07/23 14:47:29;;;;;;;1.07;0.97;;;22.00;99.90;;;;;;5016712;28;20475;-70
2022/07/23 14:50:17;;;;;;;1.37;0.90;;;21.90;99.90;;;;;;5011960;28;20466;-70
2022/07/23 14:53:09;;;;;;;1.20;1.10;;;21.80;99.90;;;;;;5016179;28;20482;-70
2022/07/23 14:55:58;;;;;;;2.20;1.20;;;21.70;99.90;;;;;;5010323;28;20467;-70